createdAt,value
2018-08-04T00:01:03.386Z,101316.93
2018-08-04T00:03:31.928Z,101317.42
2018-08-04T00:06:00.445Z,101318.42
2018-08-04T00:08:29.377Z,101317.56
2018-08-04T00:10:57.857Z,101314.67
2018-08-04T00:13:26.367Z,101312.47
2018-08-04T00:15:54.901Z,101307.66
2018-08-04T00:18:23.437Z,101306.13
2018-08-04T00:20:51.965Z,101311.80
2018-08-04T00:23:20.484Z,101312.72
2018-08-04T00:25:48.997Z,101306.14
2018-08-04T00:28:17.470Z,101302.23
2018-08-04T00:30:45.992Z,101303.58
2018-08-04T00:33:14.457Z,101299.30
2018-08-04T00:35:43.000Z,101298.30
2018-08-04T00:38:11.492Z,101291.20
2018-08-04T00:40:39.961Z,101297.91
2018-08-04T00:43:08.512Z,101294.41
2018-08-04T00:45:37.028Z,101299.77
2018-08-04T00:48:05.732Z,101297.05
2018-08-04T00:50:34.237Z,101297.84
2018-08-04T00:53:02.818Z,101299.64
2018-08-04T00:55:31.309Z,101288.23
2018-08-04T00:57:59.810Z,101283.84
2018-08-04T01:00:28.292Z,101286.18
2018-08-04T01:02:56.781Z,101281.75
2018-08-04T01:05:25.689Z,101282.58
2018-08-04T01:07:54.129Z,101284.91
2018-08-04T01:10:22.672Z,101289.28
2018-08-04T01:12:51.249Z,101291.62
2018-08-04T01:15:19.749Z,101285.47
2018-08-04T01:17:48.309Z,101285.02
2018-08-04T01:20:16.778Z,101286.12
2018-08-04T01:22:45.310Z,101277.48
2018-08-04T01:25:13.781Z,101276.55
2018-08-04T01:27:42.236Z,101274.86
2018-08-04T01:30:10.805Z,101269.45
2018-08-04T01:32:39.298Z,101269.22
2018-08-04T01:35:07.758Z,101263.08
2018-08-04T01:37:36.310Z,101256.50
2018-08-04T01:40:05.897Z,101255.70
2018-08-04T01:42:34.458Z,101252.43
2018-08-04T01:45:02.994Z,101253.19
2018-08-04T01:47:31.544Z,101263.60
2018-08-04T01:50:00.010Z,101258.83
2018-08-04T01:52:28.530Z,101257.80
2018-08-04T01:54:57.021Z,101260.92
2018-08-04T01:57:25.642Z,101258.42
2018-08-04T01:59:54.131Z,101266.36
2018-08-04T02:02:22.945Z,101264.27
2018-08-04T02:04:51.435Z,101266.08
2018-08-04T02:07:20.087Z,101257.36
2018-08-04T02:09:48.647Z,101249.00
2018-08-04T02:12:17.185Z,101259.14
2018-08-04T02:14:45.669Z,101251.37
2018-08-04T02:17:14.174Z,101254.05
2018-08-04T02:19:42.676Z,101253.13
2018-08-04T02:22:11.228Z,101248.45
2018-08-04T02:24:39.741Z,101248.30
2018-08-04T02:27:08.250Z,101245.48
2018-08-04T02:29:36.767Z,101244.61
2018-08-04T02:32:05.260Z,101246.19
2018-08-04T02:34:34.053Z,101250.14
2018-08-04T02:37:02.565Z,101244.41
2018-08-04T02:39:31.109Z,101236.91
2018-08-04T02:41:59.738Z,101230.23
2018-08-04T02:44:28.438Z,101233.40
2018-08-04T02:46:56.928Z,101232.77
2018-08-04T02:49:25.494Z,101230.61
2018-08-04T02:51:54.034Z,101229.20
2018-08-04T02:54:22.513Z,101218.19
2018-08-04T02:56:51.114Z,101223.31
2018-08-04T02:59:19.641Z,101232.66
2018-08-04T03:01:48.189Z,101223.33
2018-08-04T03:04:17.137Z,101224.03
2018-08-04T03:06:45.641Z,101223.72
2018-08-04T03:09:14.265Z,101228.80
2018-08-04T03:11:42.774Z,101231.39
2018-08-04T03:14:11.241Z,101233.59
2018-08-04T03:16:39.769Z,101232.37
2018-08-04T03:19:08.295Z,101231.19
2018-08-04T03:21:36.827Z,101237.85
2018-08-04T03:24:05.360Z,101239.20
2018-08-04T03:26:33.875Z,101243.34
2018-08-04T03:29:02.382Z,101246.30
2018-08-04T03:31:30.917Z,101251.27
2018-08-04T03:33:59.396Z,101239.20
2018-08-04T03:36:27.961Z,101247.68
2018-08-04T03:38:56.448Z,101253.00
2018-08-04T03:41:24.974Z,101249.38
2018-08-04T03:43:53.546Z,101245.43
2018-08-04T03:46:22.030Z,101238.72
2018-08-04T03:48:50.564Z,101236.05
2018-08-04T03:51:19.197Z,101239.95
2018-08-04T03:53:47.798Z,101235.73
2018-08-04T03:56:16.249Z,101240.30
2018-08-04T03:58:44.844Z,101242.44
2018-08-04T04:01:13.353Z,101245.94
2018-08-04T04:03:41.854Z,101244.72
2018-08-04T04:06:10.378Z,101245.78
2018-08-04T04:08:38.861Z,101238.93
2018-08-04T04:11:07.428Z,101240.27
2018-08-04T04:13:35.913Z,101234.34
2018-08-04T04:16:04.377Z,101235.34
2018-08-04T04:18:32.902Z,101237.15
2018-08-04T04:21:01.442Z,101239.00
2018-08-04T04:23:29.932Z,101245.86
2018-08-04T04:25:58.441Z,101252.68
2018-08-04T04:28:26.939Z,101250.94
2018-08-04T04:30:56.247Z,101250.19
2018-08-04T04:33:24.776Z,101253.98
2018-08-04T04:35:53.679Z,101257.17
2018-08-04T04:38:22.618Z,101255.55
2018-08-04T04:40:51.109Z,101252.40
2018-08-04T04:43:19.593Z,101256.89
2018-08-04T04:45:48.118Z,101257.65
2018-08-04T04:48:16.592Z,101259.03
2018-08-04T04:50:45.097Z,101266.92
2018-08-04T04:53:13.585Z,101267.98
2018-08-04T04:55:42.141Z,101266.88
2018-08-04T04:58:10.630Z,101263.25
2018-08-04T05:00:39.089Z,101273.81
2018-08-04T05:03:07.662Z,101269.05
2018-08-04T05:05:36.193Z,101273.39
2018-08-04T05:08:04.738Z,101267.94
2018-08-04T05:10:33.260Z,101275.67
2018-08-04T05:13:01.822Z,101277.68
2018-08-04T05:15:30.312Z,101271.53
2018-08-04T05:17:58.810Z,101280.36
2018-08-04T05:20:27.316Z,101276.38
2018-08-04T05:22:55.797Z,101273.59
2018-08-04T05:25:24.321Z,101276.50
2018-08-04T05:27:52.826Z,101270.92
2018-08-04T05:30:21.341Z,101270.98
2018-08-04T05:32:49.865Z,101273.52
2018-08-04T05:35:18.630Z,101277.79
2018-08-04T05:37:47.181Z,101281.64
2018-08-04T05:40:15.693Z,101280.42
2018-08-04T05:42:44.168Z,101274.22
2018-08-04T05:45:12.710Z,101278.97
2018-08-04T05:47:41.192Z,101276.67
2018-08-04T05:50:09.717Z,101268.50
2018-08-04T05:52:38.265Z,101276.23
2018-08-04T05:55:06.958Z,101275.05
2018-08-04T05:57:35.445Z,101276.67
2018-08-04T06:00:04.495Z,101276.77
2018-08-04T06:02:33.001Z,101281.88
2018-08-04T06:05:01.499Z,101279.64
2018-08-04T06:07:30.050Z,101284.45
2018-08-04T06:09:58.609Z,101289.27
2018-08-04T06:12:27.110Z,101282.66
2018-08-04T06:14:55.600Z,101284.39
2018-08-04T06:17:24.089Z,101295.43
2018-08-04T06:19:52.962Z,101296.56
2018-08-04T06:22:21.459Z,101298.36
2018-08-04T06:24:49.969Z,101301.80
2018-08-04T06:27:18.449Z,101297.80
2018-08-04T06:29:47.117Z,101295.30
2018-08-04T06:32:15.692Z,101302.74
2018-08-04T06:34:44.332Z,101302.91
2018-08-04T06:37:12.842Z,101303.58
2018-08-04T06:39:41.317Z,101310.05
2018-08-04T06:42:09.976Z,101304.77
2018-08-04T06:44:38.529Z,101304.94
2018-08-04T06:47:07.946Z,101311.77
2018-08-04T06:49:36.424Z,101307.64
2018-08-04T06:52:05.049Z,101306.47
2018-08-04T06:54:33.930Z,101322.03
2018-08-04T06:57:02.430Z,101321.31
2018-08-04T06:59:30.997Z,101319.49
2018-08-04T07:01:59.521Z,101322.83
2018-08-04T07:04:28.011Z,101324.20
2018-08-04T07:06:56.709Z,101326.20
2018-08-04T07:09:25.217Z,101322.38
2018-08-04T07:11:53.741Z,101317.84
2018-08-04T07:14:22.231Z,101316.11
2018-08-04T07:16:50.731Z,101313.17
2018-08-04T07:19:19.244Z,101312.81
2018-08-04T07:21:47.745Z,101310.88
2018-08-04T07:24:16.219Z,101303.97
2018-08-04T07:26:44.789Z,101302.68
2018-08-04T07:29:13.344Z,101307.20
2018-08-04T07:31:41.846Z,101302.36
2018-08-04T07:34:10.719Z,101304.23
2018-08-04T07:36:39.216Z,101301.58
2018-08-04T07:39:09.183Z,101306.81
2018-08-04T07:41:38.118Z,101314.44
2018-08-04T07:44:06.873Z,101314.20
2018-08-04T07:46:35.879Z,101320.41
2018-08-04T07:49:04.466Z,101317.42
2018-08-04T07:51:33.294Z,101323.95
2018-08-04T07:54:01.825Z,101321.81
2018-08-04T07:56:30.509Z,101322.92
2018-08-04T07:58:59.006Z,101323.72
2018-08-04T08:01:27.494Z,101327.80
2018-08-04T08:03:55.993Z,101328.08
2018-08-04T08:06:24.489Z,101330.50
2018-08-04T08:08:53.015Z,101331.60
2018-08-04T08:11:21.604Z,101338.09
2018-08-04T08:13:50.169Z,101339.45
2018-08-04T08:16:18.647Z,101335.66
2018-08-04T08:18:47.179Z,101335.11
2018-08-04T08:21:15.730Z,101344.31
2018-08-04T08:23:44.201Z,101343.26
2018-08-04T08:26:14.008Z,101341.63
2018-08-04T08:28:43.186Z,101347.83
2018-08-04T08:31:11.693Z,101345.67
2018-08-04T08:33:41.021Z,101347.02
2018-08-04T08:36:10.069Z,101338.36
2018-08-04T08:38:38.633Z,101338.64
2018-08-04T08:41:07.213Z,101341.07
2018-08-04T08:43:35.760Z,101338.89
2018-08-04T08:46:04.269Z,101333.72
2018-08-04T08:48:32.745Z,101338.04
2018-08-04T08:51:01.301Z,101329.31
2018-08-04T08:53:30.070Z,101335.85
2018-08-04T08:55:58.485Z,101345.30
2018-08-04T08:58:27.000Z,101339.11
2018-08-04T09:00:55.532Z,101336.08
2018-08-04T09:03:24.001Z,101338.02
2018-08-04T09:05:52.501Z,101341.77
2018-08-04T09:08:20.982Z,101343.19
2018-08-04T09:10:49.881Z,101332.25
2018-08-04T09:13:18.413Z,101339.49
2018-08-04T09:15:46.963Z,101340.09
2018-08-04T09:18:15.449Z,101334.63
2018-08-04T09:20:44.473Z,101337.86
2018-08-04T09:23:12.997Z,101346.00
2018-08-04T09:25:41.602Z,101348.70
2018-08-04T09:28:10.105Z,101331.64
2018-08-04T09:30:38.617Z,101338.91
2018-08-04T09:33:07.174Z,101342.09
2018-08-04T09:35:35.661Z,101334.48
2018-08-04T09:38:04.194Z,101345.31
2018-08-04T09:40:32.707Z,101333.81
2018-08-04T09:43:01.205Z,101336.77
2018-08-04T09:45:29.745Z,101336.02
2018-08-04T09:47:58.238Z,101331.67
2018-08-04T09:50:27.132Z,101333.02
2018-08-04T09:52:55.628Z,101331.77
2018-08-04T09:55:24.133Z,101333.06
2018-08-04T09:57:52.718Z,101328.13
2018-08-04T10:00:26.530Z,101328.90
2018-08-04T10:02:55.068Z,101329.69
2018-08-04T10:05:23.596Z,101329.50
2018-08-04T10:07:52.107Z,101329.55
2018-08-04T10:10:20.593Z,101329.63
2018-08-04T10:12:49.129Z,101327.27
2018-08-04T10:15:17.649Z,101326.99
2018-08-04T10:17:46.202Z,101329.05
2018-08-04T10:20:14.712Z,101331.25
2018-08-04T10:22:43.170Z,101329.88
2018-08-04T10:25:11.701Z,101323.75
2018-08-04T10:27:40.217Z,101319.31
2018-08-04T10:30:10.812Z,101332.83
2018-08-04T10:32:39.431Z,101319.36
2018-08-04T10:35:08.692Z,101313.75
2018-08-04T10:37:37.169Z,101308.42
2018-08-04T10:40:06.358Z,101311.56
2018-08-04T10:42:34.841Z,101310.38
2018-08-04T10:45:03.425Z,101316.11
2018-08-04T10:47:31.900Z,101311.84
2018-08-04T10:50:00.461Z,101307.67
2018-08-04T10:52:29.114Z,101305.78
2018-08-04T10:54:57.630Z,101302.66
2018-08-04T10:57:26.128Z,101303.67
2018-08-04T10:59:54.665Z,101303.81
2018-08-04T11:02:23.227Z,101289.48
2018-08-04T11:04:51.769Z,101303.47
2018-08-04T11:07:20.523Z,101296.02
2018-08-04T11:09:49.030Z,101293.09
2018-08-04T11:12:17.593Z,101296.36
2018-08-04T11:14:46.105Z,101293.33
2018-08-04T11:17:14.594Z,101293.52
2018-08-04T11:19:43.137Z,101295.45
2018-08-04T11:22:11.997Z,101283.53
2018-08-04T11:24:40.466Z,101293.91
2018-08-04T11:27:09.013Z,101289.31
2018-08-04T11:29:37.861Z,101286.67
2018-08-04T11:32:06.617Z,101285.73
2018-08-04T11:34:35.126Z,101281.26
2018-08-04T11:37:03.669Z,101279.74
2018-08-04T11:39:32.151Z,101274.38
2018-08-04T11:42:00.682Z,101282.58
2018-08-04T11:44:29.149Z,101285.08
2018-08-04T11:46:58.083Z,101280.47
2018-08-04T11:49:26.738Z,101284.37
2018-08-04T11:51:55.209Z,101283.23
2018-08-04T11:54:23.689Z,101288.02
2018-08-04T11:56:52.214Z,101285.09
2018-08-04T11:59:20.701Z,101274.42
2018-08-04T12:01:49.231Z,101274.53
2018-08-04T12:04:17.762Z,101275.68
2018-08-04T12:06:46.662Z,101293.49
2018-08-04T12:09:15.221Z,101284.82
2018-08-04T12:11:43.777Z,101290.78
2018-08-04T12:14:12.290Z,101282.25
2018-08-04T12:16:40.777Z,101278.72
2018-08-04T12:19:09.252Z,101279.44
2018-08-04T12:21:37.746Z,101278.70
2018-08-04T12:24:06.340Z,101270.25
2018-08-04T12:26:34.858Z,101266.09
2018-08-04T12:29:03.329Z,101268.48
2018-08-04T12:31:31.918Z,101275.17
2018-08-04T12:34:00.467Z,101270.61
2018-08-04T12:36:28.964Z,101266.48
2018-08-04T12:38:57.482Z,101262.40
2018-08-04T12:41:25.988Z,101258.19
2018-08-04T12:43:54.492Z,101251.93
2018-08-04T12:46:22.956Z,101255.19
2018-08-04T12:48:51.436Z,101249.58
2018-08-04T12:51:19.996Z,101238.57
2018-08-04T12:53:48.465Z,101257.37
2018-08-04T12:56:16.978Z,101241.73
2018-08-04T12:58:45.519Z,101259.25
2018-08-04T13:01:14.062Z,101259.66
2018-08-04T13:03:42.580Z,101254.32
2018-08-04T13:06:11.075Z,101242.30
2018-08-04T13:08:39.571Z,101237.82
2018-08-04T13:11:08.059Z,101240.12
2018-08-04T13:13:36.569Z,101239.46
2018-08-04T13:16:05.095Z,101245.45
2018-08-04T13:18:33.598Z,101245.30
2018-08-04T13:21:02.109Z,101253.42
2018-08-04T13:23:30.712Z,101266.34
2018-08-04T13:25:59.213Z,101254.70
2018-08-04T13:28:27.773Z,101247.27
2018-08-04T13:30:56.286Z,101246.87
2018-08-04T13:33:24.792Z,101253.42
2018-08-04T13:35:53.390Z,101244.63
2018-08-04T13:38:22.078Z,101250.48
2018-08-04T13:40:50.657Z,101243.43
2018-08-04T13:43:19.232Z,101244.92
2018-08-04T13:45:47.747Z,101229.86
2018-08-04T13:48:16.326Z,101232.05
2018-08-04T13:50:44.833Z,101227.38
2018-08-04T13:53:13.325Z,101229.39
2018-08-04T13:55:41.853Z,101222.92
2018-08-04T13:58:10.374Z,101233.37
2018-08-04T14:00:38.898Z,101218.72
2018-08-04T14:03:07.467Z,101222.53
2018-08-04T14:05:35.991Z,101217.73
2018-08-04T14:08:04.590Z,101221.62
2018-08-04T14:10:33.076Z,101229.59
2018-08-04T14:13:02.042Z,101208.59
2018-08-04T14:15:30.560Z,101203.76
2018-08-04T14:17:59.416Z,101213.80
2018-08-04T14:20:27.888Z,101211.69
2018-08-04T14:22:56.369Z,101225.37
2018-08-04T14:25:24.916Z,101222.17
2018-08-04T14:27:53.402Z,101222.50
2018-08-04T14:30:21.930Z,101234.53
2018-08-04T14:32:50.413Z,101216.66
2018-08-04T14:35:18.933Z,101224.30
2018-08-04T14:37:47.461Z,101220.75
2018-08-04T14:40:16.061Z,101227.27
2018-08-04T14:42:44.602Z,101226.63
2018-08-04T14:45:13.101Z,101231.45
2018-08-04T14:47:41.583Z,101229.32
2018-08-04T14:50:10.179Z,101231.28
2018-08-04T14:52:38.745Z,101225.70
2018-08-04T14:55:07.320Z,101231.52
2018-08-04T14:57:35.842Z,101230.55
2018-08-04T15:00:05.057Z,101229.72
2018-08-04T15:02:33.545Z,101220.37
2018-08-04T15:05:02.338Z,101236.47
2018-08-04T15:07:30.785Z,101229.12
2018-08-04T15:09:59.313Z,101225.45
2018-08-04T15:12:27.909Z,101231.58
2018-08-04T15:14:56.409Z,101217.97
2018-08-04T15:17:24.893Z,101219.45
2018-08-04T15:19:53.416Z,101220.00
2018-08-04T15:22:21.947Z,101217.17
2018-08-04T15:24:50.635Z,101222.58
2018-08-04T15:27:19.155Z,101226.81
2018-08-04T15:29:47.650Z,101239.89
2018-08-04T15:32:16.173Z,101220.25
2018-08-04T15:34:44.734Z,101220.90
2018-08-04T15:37:13.556Z,101225.62
2018-08-04T15:39:42.078Z,101221.28
2018-08-04T15:42:10.589Z,101223.80
2018-08-04T15:44:39.121Z,101235.52
2018-08-04T15:47:07.681Z,101235.59
2018-08-04T15:49:36.216Z,101260.19
2018-08-04T15:52:04.776Z,101245.97
2018-08-04T15:54:33.270Z,101248.73
2018-08-04T15:57:01.842Z,101253.91
2018-08-04T15:59:30.357Z,101252.86
2018-08-04T16:01:58.816Z,101248.55
2018-08-04T16:04:27.329Z,101252.09
2018-08-04T16:06:55.809Z,101255.51
2018-08-04T16:09:24.308Z,101248.62
2018-08-04T16:11:52.861Z,101251.00
2018-08-04T16:14:21.529Z,101254.58
2018-08-04T16:16:50.166Z,101268.67
2018-08-04T16:19:18.878Z,101258.25
2018-08-04T16:21:47.392Z,101260.75
2018-08-04T16:24:15.924Z,101270.77
2018-08-04T16:26:44.509Z,101268.30
2018-08-04T16:29:12.987Z,101262.57
2018-08-04T16:31:41.501Z,101275.03
2018-08-04T16:34:09.992Z,101279.89
2018-08-04T16:36:38.492Z,101277.53
2018-08-04T16:39:09.609Z,101278.45
2018-08-04T16:41:38.292Z,101280.81
2018-08-04T16:44:06.970Z,101279.81
2018-08-04T16:46:35.702Z,101281.88
2018-08-04T16:49:04.177Z,101297.80
2018-08-04T16:51:32.713Z,101299.06
2018-08-04T16:54:01.208Z,101284.24
2018-08-04T16:56:29.696Z,101292.38
2018-08-04T16:58:58.222Z,101304.70
2018-08-04T17:01:26.728Z,101307.63
2018-08-04T17:03:55.597Z,101298.59
2018-08-04T17:06:24.114Z,101315.36
2018-08-04T17:08:52.621Z,101311.86
2018-08-04T17:11:21.171Z,101307.58
2018-08-04T17:13:49.660Z,101311.63
2018-08-04T17:16:18.197Z,101306.22
2018-08-04T17:18:46.677Z,101317.16
2018-08-04T17:21:15.207Z,101315.84
2018-08-04T17:23:44.021Z,101318.31
2018-08-04T17:26:12.590Z,101314.50
2018-08-04T17:28:41.102Z,101316.67
2018-08-04T17:31:09.578Z,101310.70
2018-08-04T17:33:38.102Z,101319.62
2018-08-04T17:36:06.621Z,101327.47
2018-08-04T17:38:35.169Z,101331.28
2018-08-04T17:41:03.668Z,101330.53
2018-08-04T17:43:32.189Z,101323.19
2018-08-04T17:46:00.699Z,101331.59
2018-08-04T17:48:29.239Z,101329.70
2018-08-04T17:50:57.753Z,101327.27
2018-08-04T17:53:26.246Z,101321.59
2018-08-04T17:55:54.769Z,101329.44
2018-08-04T17:58:23.297Z,101328.61
2018-08-04T18:00:51.803Z,101327.53
2018-08-04T18:03:20.393Z,101330.23
2018-08-04T18:05:49.857Z,101319.94
2018-08-04T18:08:18.402Z,101331.53
2018-08-04T18:10:46.869Z,101333.17
2018-08-04T18:13:15.361Z,101330.45
2018-08-04T18:15:43.897Z,101326.68
2018-08-04T18:18:12.400Z,101327.77
2018-08-04T18:20:40.880Z,101326.45
2018-08-04T18:23:09.381Z,101326.66
2018-08-04T18:25:37.901Z,101321.25
2018-08-04T18:28:06.399Z,101324.16
2018-08-04T18:30:34.913Z,101331.58
2018-08-04T18:33:03.780Z,101335.33
2018-08-04T18:35:32.309Z,101336.09
2018-08-04T18:38:00.804Z,101348.67
2018-08-04T18:40:29.373Z,101346.67
2018-08-04T18:42:58.290Z,101346.27
2018-08-04T18:45:26.930Z,101340.50
2018-08-04T18:47:55.436Z,101348.78
2018-08-04T18:50:23.961Z,101353.05
2018-08-04T18:52:52.697Z,101352.19
2018-08-04T18:55:21.192Z,101357.27
2018-08-04T18:57:49.927Z,101361.80
2018-08-04T19:00:18.433Z,101368.98
2018-08-04T19:02:46.933Z,101350.21
2018-08-04T19:05:15.505Z,101354.95
2018-08-04T19:07:44.038Z,101366.15
2018-08-04T19:10:12.635Z,101371.78
2018-08-04T19:12:41.126Z,101376.48
2018-08-04T19:15:09.611Z,101374.45
2018-08-04T19:17:38.129Z,101379.52
2018-08-04T19:20:06.669Z,101380.19
2018-08-04T19:22:35.133Z,101388.41
2018-08-04T19:25:03.687Z,101379.70
2018-08-04T19:29:59.637Z,101387.87
2018-08-04T19:32:28.134Z,101394.16
2018-08-04T19:34:56.641Z,101389.34
2018-08-04T19:37:25.149Z,101394.65
2018-08-04T19:39:53.697Z,101394.17
2018-08-04T19:42:22.258Z,101395.91
2018-08-04T19:44:50.756Z,101401.26
2018-08-04T19:47:19.250Z,101403.05
2018-08-04T19:49:47.754Z,101401.75
2018-08-04T19:52:16.296Z,101404.47
2018-08-04T19:54:44.926Z,101409.11
2018-08-04T19:57:13.462Z,101407.31
2018-08-04T19:59:42.370Z,101418.23
2018-08-04T20:02:10.853Z,101415.63
2018-08-04T20:04:39.309Z,101417.04
2018-08-04T20:07:07.825Z,101410.34
2018-08-04T20:09:36.284Z,101417.20
2018-08-04T20:12:04.882Z,101418.82
2018-08-04T20:14:33.357Z,101416.22
2018-08-04T20:17:01.876Z,101419.61
2018-08-04T20:19:30.441Z,101423.24
2018-08-04T20:21:58.959Z,101419.36
2018-08-04T20:24:27.463Z,101420.09
2018-08-04T20:26:56.014Z,101420.95
2018-08-04T20:29:24.600Z,101423.29
2018-08-04T20:31:53.051Z,101421.33
2018-08-04T20:34:21.619Z,101424.12
2018-08-04T20:36:50.129Z,101423.63
2018-08-04T20:39:18.611Z,101430.05
2018-08-04T20:41:47.173Z,101422.98
2018-08-04T20:44:15.651Z,101428.09
2018-08-04T20:46:44.187Z,101431.39
2018-08-04T20:49:12.634Z,101433.97
2018-08-04T20:51:41.202Z,101436.55
2018-08-04T20:54:09.680Z,101435.53
2018-08-04T20:56:38.228Z,101438.53
2018-08-04T20:59:06.809Z,101438.62
2018-08-04T21:01:39.152Z,101436.55
2018-08-04T21:04:07.766Z,101428.75
2018-08-04T21:06:36.229Z,101435.20
2018-08-04T21:09:07.010Z,101445.25
2018-08-04T21:11:35.693Z,101447.54
2018-08-04T21:14:04.200Z,101446.86
2018-08-04T21:16:32.697Z,101442.24
2018-08-04T21:19:01.212Z,101442.55
2018-08-04T21:21:29.687Z,101439.13
2018-08-04T21:23:58.169Z,101442.83
2018-08-04T21:26:26.688Z,101439.69
2018-08-04T21:28:55.189Z,101435.41
2018-08-04T21:31:23.691Z,101431.70
2018-08-04T21:33:52.528Z,101432.98
2018-08-04T21:36:20.984Z,101429.47
2018-08-04T21:38:49.482Z,101437.13
2018-08-04T21:41:17.981Z,101447.46
2018-08-04T21:43:46.507Z,101442.09
2018-08-04T21:46:15.172Z,101439.53
2018-08-04T21:48:43.633Z,101446.59
2018-08-04T21:51:12.142Z,101454.78
2018-08-04T21:53:40.639Z,101454.08
2018-08-04T21:56:09.151Z,101452.73
2018-08-04T21:58:37.652Z,101448.27
2018-08-04T22:01:11.434Z,101450.70
2018-08-04T22:03:39.990Z,101452.56
2018-08-04T22:06:08.492Z,101447.91
2018-08-04T22:08:48.257Z,101452.11
2018-08-04T22:11:16.814Z,101454.80
2018-08-04T22:13:45.446Z,101457.02
2018-08-04T22:16:13.909Z,101458.83
2018-08-04T22:18:43.134Z,101452.44
2018-08-04T22:21:12.060Z,101449.52
2018-08-04T22:23:40.565Z,101453.30
2018-08-04T22:26:09.053Z,101453.94
2018-08-04T22:28:37.561Z,101464.39
2018-08-04T22:31:06.183Z,101460.75
2018-08-04T22:33:34.668Z,101458.53
2018-08-04T22:36:03.162Z,101453.05
2018-08-04T22:38:31.632Z,101459.26
2018-08-04T22:41:00.143Z,101463.16
2018-08-04T22:43:28.626Z,101459.59
2018-08-04T22:46:13.136Z,101464.51
2018-08-04T22:48:42.788Z,101460.91
2018-08-04T22:51:11.310Z,101468.50
2018-08-04T22:53:39.957Z,101457.72
2018-08-04T22:56:08.498Z,101463.55
2018-08-04T22:58:36.975Z,101465.18
2018-08-04T23:01:05.672Z,101466.80
2018-08-04T23:03:34.312Z,101467.48
2018-08-04T23:06:02.834Z,101473.45
2018-08-04T23:08:31.405Z,101472.33
2018-08-04T23:10:59.923Z,101470.53
2018-08-04T23:13:28.395Z,101477.45
2018-08-04T23:15:56.934Z,101475.45
2018-08-04T23:18:25.458Z,101474.56
2018-08-04T23:20:53.987Z,101477.38
2018-08-04T23:23:22.522Z,101481.61
2018-08-04T23:25:51.164Z,101484.39
2018-08-04T23:28:19.701Z,101488.24
2018-08-04T23:30:48.208Z,101484.85
2018-08-04T23:33:17.077Z,101484.91
2018-08-04T23:35:45.569Z,101486.34
2018-08-04T23:38:14.075Z,101486.62
2018-08-04T23:40:42.584Z,101488.69
2018-08-04T23:43:11.054Z,101487.51
2018-08-04T23:45:39.532Z,101499.77
2018-08-04T23:48:08.028Z,101495.45
2018-08-04T23:50:36.953Z,101493.64
2018-08-04T23:53:05.461Z,101496.70
2018-08-04T23:55:33.943Z,101498.84
2018-08-04T23:58:02.645Z,101508.63
